Time;durP1;ratioP1;P1;durP2;ratioP2;P2;SDS_P1;SDS_P2;PMS_P1;PMS_P2;Temp;Humidity;BMP_temperature;BMP_pressure;BME280_temperature;BME280_humidity;BME280_pressure;Samples;Min_cycle;Max_cycle;Signal;HPM_P1;HPM_P2
2022/12/11 00:09:55;;;;;;;6.50;4.32;;;;;;;20.38;49.07;98172.19;20725906;28;20626;-79
2022/12/11 00:19:56;;;;;;;6.65;4.13;;;;;;;20.38;49.21;98161.69;20727014;28;20050;-80
2022/12/11 00:29:56;;;;;;;5.43;4.10;;;;;;;20.36;49.49;98146.09;20721899;28;20049;-79
2022/12/11 00:39:57;;;;;;;6.75;4.20;;;;;;;20.33;49.55;98153.50;20726249;28;20100;-79
2022/12/11 00:49:57;;;;;;;6.00;4.03;;;;;;;20.30;49.79;98142.31;20741084;28;20137;-79
2022/12/11 00:59:58;;;;;;;4.75;3.70;;;;;;;20.31;49.63;98145.75;20730093;28;20046;-79
2022/12/11 01:20:19;;;;;;;5.47;4.10;;;;;;;20.26;49.94;98172.56;20735140;28;20041;-80
2022/12/11 01:30:22;;;;;;;4.93;3.97;;;;;;;20.26;49.83;98158.56;20742403;28;20053;-80
2022/12/11 01:40:24;;;;;;;4.50;3.80;;;;;;;20.25;50.02;98175.31;20739368;28;20045;-80
2022/12/11 01:50:25;;;;;;;5.90;4.00;;;;;;;20.19;49.98;98170.75;20743390;28;20042;-80
2022/12/11 02:00:25;;;;;;;5.28;4.00;;;;;;;20.11;50.12;98187.34;20732505;28;20067;-79
2022/12/11 02:10:39;;;;;;;5.07;3.80;;;;;;;20.14;49.57;98190.47;20732854;28;20038;-80
2022/12/11 02:21:13;;;;;;;5.85;4.43;;;;;;;20.14;49.73;98200.97;20731887;28;20576;-79
2022/12/11 02:31:39;;;;;;;5.82;4.45;;;;;;;20.11;49.59;98197.84;20723959;28;20045;-80
2022/12/11 02:41:45;;;;;;;5.85;4.50;;;;;;;20.16;49.49;98182.41;20728755;28;20140;-81
2022/12/11 02:51:45;;;;;;;5.22;4.30;;;;;;;20.15;49.57;98178.13;20727146;28;20056;-80
2022/12/11 03:01:46;;;;;;;5.40;4.25;;;;;;;20.13;49.51;98183.56;20731077;28;20050;-80
2022/12/11 03:11:47;;;;;;;6.28;4.60;;;;;;;20.13;49.01;98159.91;20746097;28;20042;-81
2022/12/11 03:22:04;;;;;;;5.90;4.65;;;;;;;20.11;49.45;98171.59;20753218;28;20034;-80
2022/12/11 03:32:12;;;;;;;7.20;5.05;;;;;;;20.12;49.45;98163.53;20746680;28;20433;-79
2022/12/11 03:42:17;;;;;;;7.68;5.72;;;;;;;20.13;49.20;98162.53;20741483;28;20057;-80
2022/12/11 03:52:19;;;;;;;7.75;5.60;;;;;;;20.14;49.08;98163.34;20740254;28;20050;-80
2022/12/11 04:02:20;;;;;;;8.30;6.07;;;;;;;20.11;49.11;98161.88;20751278;28;20045;-79
2022/12/11 04:12:20;;;;;;;7.82;6.65;;;;;;;20.10;48.70;98173.41;20739512;28;20080;-80
2022/12/11 04:32:40;;;;;;;9.82;6.68;;;;;;;20.18;48.51;98192.75;20768858;28;20046;-82
2022/12/11 04:42:41;;;;;;;8.60;6.50;;;;;;;20.18;48.66;98211.97;20746752;28;20048;-80
2022/12/11 04:52:41;;;;;;;9.05;6.82;;;;;;;20.17;48.68;98238.44;20744066;28;20048;-79
2022/12/11 05:02:42;;;;;;;8.23;6.63;;;;;;;20.22;48.63;98230.84;20738300;28;20128;-80
2022/12/11 05:12:42;;;;;;;9.95;6.78;;;;;;;20.18;48.48;98255.81;20737764;28;20061;-79
2022/12/11 05:22:44;;;;;;;11.20;7.88;;;;;;;20.27;47.70;98260.91;20737029;28;20447;-80
2022/12/11 05:32:44;;;;;;;11.88;8.40;;;;;;;20.34;47.01;98271.59;20718538;28;20053;-81
2022/12/11 05:42:45;;;;;;;11.50;8.27;;;;;;;20.41;47.41;98267.31;20738547;28;20050;-81
2022/12/11 05:52:45;;;;;;;9.57;7.05;;;;;;;20.46;47.41;98248.41;20730485;28;20127;-80
2022/12/11 06:02:46;;;;;;;7.72;6.15;;;;;;;20.51;47.59;98266.31;20735544;28;20048;-79
2022/12/11 06:12:46;;;;;;;8.25;6.05;;;;;;;20.55;47.21;98294.72;20724407;28;20057;-80
2022/12/11 06:22:47;;;;;;;7.57;5.68;;;;;;;20.58;47.98;98323.34;20707676;28;20042;-82
2022/12/11 06:32:47;;;;;;;8.35;5.50;;;;;;;20.64;47.77;98342.88;20718479;28;20045;-81
2022/12/11 06:42:47;;;;;;;7.90;5.93;;;;;;;20.70;47.60;98349.28;20727137;28;20049;-81
2022/12/11 06:52:48;;;;;;;6.28;4.82;;;;;;;20.76;47.40;98373.16;20734597;28;20234;-80
2022/12/11 07:02:50;;;;;;;6.10;4.80;;;;;;;20.82;47.76;98391.91;20738019;28;20045;-82
2022/12/11 07:12:54;;;;;;;4.55;4.10;;;;;;;20.89;48.27;98398.16;20729937;28;20042;-81
2022/12/11 07:22:54;;;;;;;6.05;4.38;;;;;;;20.99;48.38;98397.97;20738997;28;20118;-82
2022/12/11 07:32:55;;;;;;;7.65;4.70;;;;;;;21.04;48.62;98414.06;20730229;28;20042;-84
2022/12/11 07:42:55;;;;;;;6.28;4.63;;;;;;;21.14;49.22;98427.91;20724643;28;20370;-81
2022/12/11 07:53:02;;;;;;;9.13;4.57;;;;;;;21.25;50.04;98440.72;20736871;28;20053;-85
2022/12/11 08:03:02;;;;;;;6.38;4.78;;;;;;;21.34;50.31;98469.66;20768822;28;20383;-85
2022/12/11 08:13:02;;;;;;;8.07;5.78;;;;;;;21.41;50.23;98479.34;20747528;28;20045;-83
2022/12/11 08:23:04;;;;;;;9.98;6.32;;;;;;;21.44;49.81;98499.25;20759459;28;20042;-84
2022/12/11 08:33:05;;;;;;;8.23;5.28;;;;;;;21.49;49.13;98507.47;20763898;28;20424;-81
2022/12/11 08:43:06;;;;;;;7.65;5.72;;;;;;;21.50;48.91;98527.56;20762704;28;20099;-80
2022/12/11 08:53:08;;;;;;;6.38;5.03;;;;;;;21.50;48.74;98550.44;20773911;28;20527;-83
2022/12/11 09:03:09;;;;;;;6.93;4.80;;;;;;;21.47;48.29;98559.50;20770345;28;20033;-81
2022/12/11 09:13:09;;;;;;;5.35;4.00;;;;;;;21.49;48.74;98561.97;20740897;28;20125;-81
2022/12/11 09:23:09;;;;;;;8.43;4.18;;;;;;;21.37;48.29;98561.47;20744013;28;20037;-79
2022/12/11 09:33:10;;;;;;;5.47;4.35;;;;;;;21.35;48.18;98573.94;20738655;28;20041;-81
2022/12/11 09:43:28;;;;;;;9.10;4.13;;;;;;;21.35;48.40;98579.22;20747015;28;20132;-82
2022/12/11 09:53:33;;;;;;;4.95;3.55;;;;;;;21.37;48.66;98564.09;20701385;28;20096;-77
2022/12/11 10:03:55;;;;;;;5.78;3.67;;;;;;;21.36;48.68;98554.53;20701163;28;20045;-79
2022/12/11 10:14:18;;;;;;;7.30;3.92;;;;;;;21.37;48.39;98545.66;20705963;28;20064;-79
2022/12/11 10:24:34;;;;;;;6.18;4.10;;;;;;;21.37;49.00;98572.00;20705969;28;20093;-79
2022/12/11 10:34:41;;;;;;;6.68;4.50;;;;;;;21.36;49.36;98580.88;20702273;28;20041;-80
2022/12/11 10:44:58;;;;;;;7.07;4.22;;;;;;;21.39;49.71;98589.25;20720241;28;20049;-84
2022/12/11 10:55:01;;;;;;;5.95;4.45;;;;;;;21.44;50.45;98623.00;20730737;28;20081;-82
2022/12/11 11:05:36;;;;;;;7.60;5.25;;;;;;;21.42;49.96;98606.53;20728974;28;20088;-85
2022/12/11 11:15:36;;;;;;;9.45;5.70;;;;;;;21.41;49.69;98608.38;20694345;28;20128;-82
2022/12/11 11:25:37;;;;;;;8.30;5.55;;;;;;;21.39;49.30;98591.09;20730156;28;20076;-83
2022/12/11 11:35:37;;;;;;;7.43;5.68;;;;;;;21.39;49.38;98602.44;20708299;28;20560;-80
2022/12/11 11:45:40;;;;;;;6.85;5.00;;;;;;;21.06;46.26;98626.06;20719329;28;20040;-78
2022/12/11 11:56:06;;;;;;;9.65;4.63;;;;;;;21.28;48.01;98644.88;20705475;28;20069;-82
2022/12/11 12:06:21;;;;;;;12.48;7.53;;;;;;;21.37;48.92;98656.25;20727796;28;20056;-80
2022/12/11 12:16:32;;;;;;;13.70;9.38;;;;;;;21.50;49.77;98664.50;20712870;28;20050;-80
2022/12/11 12:26:36;;;;;;;16.33;10.50;;;;;;;21.62;50.37;98672.09;20709312;28;20045;-82
2022/12/11 12:37:02;;;;;;;52.30;36.40;;;;;;;21.70;50.59;98651.88;20732570;28;20048;-79
2022/12/11 12:47:14;;;;;;;125.63;80.40;;;;;;;21.70;50.31;98654.50;20734984;28;20049;-79
2022/12/11 12:57:14;;;;;;;64.85;42.58;;;;;;;21.19;44.91;98682.69;20730009;28;20158;-79
2022/12/11 13:07:19;;;;;;;59.20;38.58;;;;;;;21.39;46.78;98705.13;20730034;28;20075;-79
2022/12/11 13:17:19;;;;;;;54.53;36.53;;;;;;;21.46;47.60;98723.75;20756523;28;20042;-80
2022/12/11 13:27:35;;;;;;;45.78;31.60;;;;;;;21.47;47.65;98737.72;20716999;28;20050;-81
2022/12/11 13:37:42;;;;;;;44.17;29.15;;;;;;;21.45;48.11;98745.78;20712968;28;20052;-79
2022/12/11 13:47:45;;;;;;;39.83;26.50;;;;;;;21.43;47.93;98758.28;20723546;28;20064;-76
2022/12/11 13:57:45;;;;;;;;;;;;;;;21.43;48.30;98747.75;20710270;28;20172;-77
2022/12/11 14:07:54;;;;;;;33.53;21.48;;;;;;;21.40;47.98;98774.41;20714658;28;21567;-76
2022/12/11 14:17:55;;;;;;;29.92;19.55;;;;;;;21.37;48.13;98794.00;20731555;28;20049;-76
2022/12/11 14:27:56;;;;;;;27.70;17.05;;;;;;;21.36;48.19;98810.78;20714576;28;20389;-76
2022/12/11 14:38:01;;;;;;;23.02;15.77;;;;;;;21.35;48.21;98832.81;20714843;28;20057;-78
2022/12/11 14:48:06;;;;;;;21.98;14.55;;;;;;;21.34;48.63;98828.53;20728971;28;20045;-80
2022/12/11 14:58:23;;;;;;;19.52;13.23;;;;;;;21.34;48.82;98833.78;20711781;28;20056;-80
2022/12/11 15:08:30;;;;;;;19.40;12.52;;;;;;;21.32;48.76;98848.09;20712036;28;20054;-81
2022/12/11 15:18:38;;;;;;;19.55;12.10;;;;;;;21.33;49.55;98866.38;20715371;28;20096;-80
2022/12/11 15:28:38;;;;;;;18.83;11.27;;;;;;;21.38;49.58;98868.53;20719199;28;20049;-80
2022/12/11 15:38:39;;;;;;;14.73;10.27;;;;;;;21.39;49.65;98876.25;20720963;28;20049;-84
2022/12/11 15:48:39;;;;;;;14.77;10.40;;;;;;;21.39;49.57;98878.91;20749572;28;20049;-83
2022/12/11 15:58:41;;;;;;;14.90;10.40;;;;;;;21.37;49.45;98877.41;20734827;28;20057;-82
2022/12/11 16:08:42;;;;;;;15.00;10.43;;;;;;;21.42;49.41;98893.56;20740749;28;20038;-82
2022/12/11 16:18:42;;;;;;;13.95;9.48;;;;;;;21.45;49.26;98906.44;20769679;28;20030;-80
2022/12/11 16:28:43;;;;;;;13.85;9.15;;;;;;;21.44;49.52;98910.03;20775626;28;20061;-81
2022/12/11 16:38:45;;;;;;;11.93;8.57;;;;;;;21.52;49.28;98917.13;20759798;28;20106;-79
2022/12/11 16:48:46;;;;;;;10.53;8.07;;;;;;;21.49;48.87;98935.91;20725352;28;20124;-81
2022/12/11 16:58:47;;;;;;;14.15;8.75;;;;;;;21.39;48.74;98922.84;20742769;28;20046;-82
2022/12/11 17:08:47;;;;;;;11.32;8.05;;;;;;;21.33;48.93;98926.91;20732486;28;20053;-81
2022/12/11 17:18:48;;;;;;;10.57;7.93;;;;;;;21.25;49.03;98918.97;20736531;28;21874;-79
2022/12/11 17:28:49;;;;;;;9.63;7.20;;;;;;;21.20;49.00;98923.88;20753700;28;20038;-84
2022/12/11 17:38:50;;;;;;;9.35;7.22;;;;;;;21.20;49.08;98939.66;20741234;28;20042;-85
2022/12/11 17:48:51;;;;;;;10.05;7.10;;;;;;;21.17;49.00;98940.81;20737919;28;20046;-83
2022/12/11 17:58:51;;;;;;;10.50;7.47;;;;;;;21.16;49.10;98935.69;20755266;28;20523;-81
2022/12/11 18:08:52;;;;;;;9.45;6.80;;;;;;;21.09;49.05;98933.69;20748963;28;20069;-80
2022/12/11 18:18:55;;;;;;;11.18;6.72;;;;;;;21.01;49.74;98956.50;20732535;28;20049;-78
2022/12/11 18:28:56;;;;;;;9.43;6.95;;;;;;;20.94;49.54;98962.34;20743379;28;20619;-78
2022/12/11 18:39:17;;;;;;;10.25;7.38;;;;;;;21.00;49.51;98962.72;20720793;28;20046;-78
2022/12/11 18:49:18;;;;;;;11.35;7.45;;;;;;;20.97;50.54;98982.28;20716745;28;20064;-77
2022/12/11 18:59:19;;;;;;;24.25;8.98;;;;;;;21.00;51.21;98981.16;20720907;28;21751;-79
2022/12/11 19:09:22;;;;;;;22.63;9.77;;;;;;;21.04;51.69;99001.72;20721977;28;20429;-80
2022/12/11 19:19:23;;;;;;;20.10;9.52;;;;;;;20.98;52.00;99004.97;20729874;28;20061;-76
2022/12/11 19:29:27;;;;;;;17.30;9.70;;;;;;;20.94;51.25;99004.44;20727310;28;20077;-76
2022/12/11 19:39:31;;;;;;;22.27;8.90;;;;;;;20.98;50.85;99004.16;20727156;28;20045;-84
2022/12/11 19:49:32;;;;;;;17.02;8.15;;;;;;;20.95;51.29;99015.81;20727038;28;20042;-85
2022/12/11 19:59:33;;;;;;;16.77;8.50;;;;;;;20.78;48.96;99015.63;20718113;28;20113;-87
2022/12/11 20:09:33;;;;;;;17.70;7.72;;;;;;;20.77;48.93;99021.88;20731400;28;20077;-86
2022/12/11 20:19:34;;;;;;;16.58;7.15;;;;;;;20.77;49.76;99034.22;20727777;28;20505;-82
2022/12/11 20:29:38;;;;;;;13.55;7.45;;;;;;;20.79;49.94;99030.44;20740577;28;20504;-81
2022/12/11 20:39:40;;;;;;;11.93;7.18;;;;;;;20.77;50.09;99036.84;20741590;28;20508;-82
2022/12/11 20:49:42;;;;;;;10.77;6.30;;;;;;;20.76;50.23;99037.81;20733609;28;20088;-83
2022/12/11 20:59:44;;;;;;;12.60;6.82;;;;;;;20.76;50.47;99033.41;20738301;28;20516;-83
2022/12/11 21:09:46;;;;;;;10.52;6.38;;;;;;;20.71;50.84;99051.38;20740642;28;20168;-81
2022/12/11 21:19:46;;;;;;;12.48;6.80;;;;;;;20.70;50.78;99060.25;20742542;28;20103;-84
2022/12/11 21:29:46;;;;;;;10.00;6.38;;;;;;;20.66;50.59;99087.00;20752047;28;20041;-82
2022/12/11 21:39:47;;;;;;;8.18;6.07;;;;;;;20.63;50.64;99090.75;20749500;28;20049;-82
2022/12/11 21:49:48;;;;;;;10.95;6.22;;;;;;;20.60;50.91;99099.78;20735635;28;20061;-82
2022/12/11 21:59:48;;;;;;;8.00;5.97;;;;;;;20.59;50.65;99092.84;20736742;28;20403;-81
2022/12/11 22:09:55;;;;;;;10.10;6.13;;;;;;;20.59;50.72;99105.16;20738080;28;20307;-80
2022/12/11 22:19:55;;;;;;;9.05;5.40;;;;;;;20.55;50.76;99117.78;20735611;28;20497;-81
2022/12/11 22:29:58;;;;;;;7.03;5.05;;;;;;;20.55;50.65;99109.06;20730945;28;20076;-80
2022/12/11 22:39:59;;;;;;;;;;;;;;;20.54;50.69;99110.84;20740933;28;20068;-80
2022/12/11 22:49:59;;;;;;;9.02;5.57;;;;;;;20.52;50.82;99123.34;20729798;28;19925;-86
2022/12/11 22:59:59;;;;;;;5.93;4.90;;;;;;;20.53;51.11;99121.53;20733321;28;20051;-80
2022/12/11 23:10:00;;;;;;;8.15;4.97;;;;;;;20.51;50.80;99141.88;20733782;28;20049;-80
2022/12/11 23:20:04;;;;;;;7.13;4.93;;;;;;;20.51;50.93;99133.97;20737717;28;20053;-83
2022/12/11 23:30:05;;;;;;;6.78;4.68;;;;;;;20.50;50.86;99142.88;20723819;28;20053;-82
2022/12/11 23:40:07;;;;;;;7.13;4.50;;;;;;;20.48;50.83;99133.31;20729895;28;20065;-82
2022/12/11 23:50:08;;;;;;;5.65;4.10;;;;;;;20.49;50.76;99134.13;20729133;28;20672;-80
